createdAt,value
2023-02-21T00:01:33.052Z,96562.16
2023-02-21T00:03:59.311Z,96582.91
2023-02-21T00:06:25.516Z,96598.47
2023-02-21T00:08:51.729Z,96627.03
2023-02-21T00:11:17.931Z,96650.97
2023-02-21T00:13:44.135Z,96665.03
2023-02-21T00:16:13.678Z,96680.00
2023-02-21T00:18:39.904Z,96706.22
2023-02-21T00:21:06.210Z,96755.53
2023-02-21T00:23:35.781Z,96830.50
2023-02-21T00:26:01.983Z,96892.16
2023-02-21T00:28:28.193Z,96935.84
2023-02-21T00:30:54.552Z,97006.06
2023-02-21T00:33:20.922Z,97062.09
2023-02-21T00:35:47.152Z,97131.06
2023-02-21T00:38:13.350Z,97199.16
2023-02-21T00:40:39.571Z,97238.84
2023-02-21T00:43:05.764Z,97297.16
2023-02-21T00:45:31.965Z,97383.09
2023-02-21T00:47:58.166Z,97434.69
2023-02-21T00:50:24.366Z,97499.84
2023-02-21T00:52:50.588Z,97587.44
2023-02-21T00:55:16.803Z,97668.63
2023-02-21T00:57:43.013Z,97728.53
2023-02-21T01:00:10.073Z,97761.59
2023-02-21T01:02:36.287Z,97803.50
2023-02-21T01:05:02.513Z,97825.88
2023-02-21T01:07:28.748Z,97871.25
2023-02-21T01:09:54.943Z,97924.59
2023-02-21T01:12:21.153Z,97967.75
2023-02-21T01:14:47.353Z,98010.81
2023-02-21T01:17:13.943Z,98047.69
2023-02-21T01:19:40.750Z,98075.31
2023-02-21T01:22:06.967Z,98104.91
2023-02-21T01:24:33.180Z,98134.00
2023-02-21T01:26:59.855Z,98155.53
2023-02-21T01:29:26.051Z,98210.81
2023-02-21T01:31:52.262Z,98236.56
2023-02-21T01:34:18.484Z,98271.03
2023-02-21T01:36:44.735Z,98294.38
2023-02-21T01:39:10.997Z,98339.03
2023-02-21T01:41:37.195Z,98349.41
2023-02-21T01:44:22.000Z,98350.19
2023-02-21T01:46:48.216Z,98421.69
2023-02-21T01:49:15.792Z,98488.44
2023-02-21T01:51:42.208Z,98523.22
2023-02-21T01:54:08.440Z,98535.44
2023-02-21T01:56:34.662Z,98549.00
2023-02-21T01:59:00.940Z,98570.22
2023-02-21T02:01:35.598Z,98630.66
2023-02-21T02:04:01.824Z,98647.00
2023-02-21T02:06:28.024Z,98695.53
2023-02-21T02:08:54.272Z,98728.78
2023-02-21T02:11:32.123Z,98752.13
2023-02-21T02:14:09.090Z,98802.69
2023-02-21T02:16:40.832Z,98856.94
2023-02-21T02:19:07.011Z,98884.41
2023-02-21T02:21:40.674Z,98896.13
2023-02-21T02:24:14.949Z,98917.63
2023-02-21T02:27:00.011Z,98915.31
2023-02-21T02:29:39.829Z,98934.47
2023-02-21T02:32:06.052Z,98939.94
2023-02-21T02:34:36.847Z,98936.81
2023-02-21T02:37:06.299Z,98963.03
2023-02-21T02:39:47.781Z,99004.03
2023-02-21T02:42:24.507Z,99049.88
2023-02-21T02:44:52.958Z,99069.00
2023-02-21T02:47:20.031Z,99100.47
2023-02-21T02:49:46.246Z,99107.66
2023-02-21T02:52:12.450Z,99153.63
2023-02-21T02:54:38.689Z,99211.28
2023-02-21T02:57:05.356Z,99239.22
2023-02-21T02:59:31.576Z,99277.63
2023-02-21T03:02:00.784Z,99307.19
2023-02-21T03:04:42.009Z,99321.88
2023-02-21T03:07:26.754Z,99343.22
2023-02-21T03:09:59.849Z,99379.53
2023-02-21T03:12:41.547Z,99403.66
2023-02-21T03:15:26.609Z,99412.84
2023-02-21T03:17:57.185Z,99465.03
2023-02-21T03:20:23.390Z,99490.03
2023-02-21T03:22:49.642Z,99509.41
2023-02-21T03:25:15.853Z,99541.56
2023-02-21T03:27:42.058Z,99550.63
2023-02-21T03:30:08.652Z,99556.94
2023-02-21T03:32:39.055Z,99567.94
2023-02-21T03:35:05.385Z,99591.78
2023-02-21T03:37:35.736Z,99594.91
2023-02-21T03:40:02.092Z,99615.00
2023-02-21T03:42:28.313Z,99631.03
2023-02-21T03:44:54.620Z,99641.13
2023-02-21T03:47:21.167Z,99661.56
2023-02-21T03:49:47.391Z,99683.09
2023-02-21T03:52:13.704Z,99690.22
2023-02-21T03:54:40.191Z,99693.31
2023-02-21T03:57:06.396Z,99712.47
2023-02-21T03:59:32.640Z,99715.66
2023-02-21T04:01:58.903Z,99710.09
2023-02-21T04:04:25.168Z,99716.06
2023-02-21T04:06:51.425Z,99716.06
2023-02-21T04:09:17.645Z,99719.03
2023-02-21T04:11:44.311Z,99715.28
2023-02-21T04:14:10.506Z,99715.06
2023-02-21T04:16:36.829Z,99731.94
2023-02-21T04:19:03.127Z,99736.03
2023-02-21T04:21:29.356Z,99741.31
2023-02-21T04:23:55.598Z,99745.38
2023-02-21T04:26:22.032Z,99743.25
2023-02-21T04:28:48.284Z,99736.47
2023-02-21T04:31:15.354Z,99755.53
2023-02-21T04:33:41.803Z,99754.03
2023-02-21T04:36:08.074Z,99753.63
2023-02-21T04:38:34.275Z,99761.31
2023-02-21T04:41:00.557Z,99762.28
2023-02-21T04:43:26.781Z,99772.19
2023-02-21T04:45:53.097Z,99777.09
2023-02-21T04:48:19.323Z,99766.88
2023-02-21T04:50:45.572Z,99779.13
2023-02-21T04:53:11.804Z,99791.06
2023-02-21T04:55:38.076Z,99812.47
2023-02-21T04:58:04.621Z,99811.72
2023-02-21T05:00:30.986Z,99822.72
2023-02-21T05:02:57.242Z,99829.31
2023-02-21T05:05:23.463Z,99821.44
2023-02-21T05:07:49.702Z,99817.75
2023-02-21T05:10:16.498Z,99821.97
2023-02-21T05:12:42.723Z,99830.91
2023-02-21T05:15:09.043Z,99840.25
2023-02-21T05:17:35.257Z,99839.81
2023-02-21T05:20:01.525Z,99841.84
2023-02-21T05:22:27.745Z,99845.59
2023-02-21T05:24:53.981Z,99843.78
2023-02-21T05:27:20.320Z,99856.06
2023-02-21T05:29:49.851Z,99861.91
2023-02-21T05:32:16.599Z,99857.88
2023-02-21T05:34:42.931Z,99854.72
2023-02-21T05:37:09.315Z,99866.31
2023-02-21T05:39:35.524Z,99874.41
2023-02-21T05:42:01.755Z,99877.81
2023-02-21T05:44:27.964Z,99880.50
2023-02-21T05:46:54.297Z,99890.06
2023-02-21T05:49:20.545Z,99901.78
2023-02-21T05:51:46.800Z,99905.50
2023-02-21T05:54:17.128Z,99901.69
2023-02-21T05:56:43.675Z,99911.69
2023-02-21T05:59:09.904Z,99911.69
2023-02-21T06:01:36.174Z,99918.78
2023-02-21T06:04:02.413Z,99907.53
2023-02-21T06:06:28.636Z,99895.03
2023-02-21T06:08:54.866Z,99919.56
2023-02-21T06:11:25.028Z,99912.81
2023-02-21T06:13:51.478Z,99904.59
2023-02-21T06:16:17.685Z,99899.50
2023-02-21T06:18:43.907Z,99898.06
2023-02-21T06:21:10.114Z,99890.16
2023-02-21T06:23:36.363Z,99893.75
2023-02-21T06:26:02.637Z,99896.81
2023-02-21T06:28:29.337Z,99895.88
2023-02-21T06:30:55.828Z,99900.72
2023-02-21T06:33:22.112Z,99891.41
2023-02-21T06:35:48.321Z,99897.28
2023-02-21T06:38:14.578Z,99915.59
2023-02-21T06:40:40.853Z,99923.50
2023-02-21T06:43:07.246Z,99940.75
2023-02-21T06:45:33.451Z,99932.63
2023-02-21T06:47:59.718Z,99946.50
2023-02-21T06:50:26.033Z,99938.38
2023-02-21T06:52:52.244Z,99938.94
2023-02-21T06:55:24.337Z,99945.59
2023-02-21T06:57:51.509Z,99944.69
2023-02-21T07:00:17.891Z,99955.16
2023-02-21T07:02:44.118Z,99970.16
2023-02-21T07:05:10.426Z,99992.91
2023-02-21T07:07:36.833Z,99995.16
2023-02-21T07:10:03.115Z,100011.03
2023-02-21T07:12:29.408Z,100017.47
2023-02-21T07:14:55.622Z,100025.13
2023-02-21T07:17:21.851Z,100013.09
2023-02-21T07:19:48.061Z,100030.22
2023-02-21T07:22:14.274Z,100028.88
2023-02-21T07:24:40.518Z,100044.41
2023-02-21T07:27:06.740Z,100062.44
2023-02-21T07:29:32.971Z,100067.97
2023-02-21T07:31:59.366Z,100082.53
2023-02-21T07:34:25.716Z,100082.53
2023-02-21T07:36:51.945Z,100084.22
2023-02-21T07:39:18.184Z,100083.84
2023-02-21T07:41:44.511Z,100112.41
2023-02-21T07:44:10.794Z,100110.03
2023-02-21T07:46:37.086Z,100115.00
2023-02-21T07:49:03.337Z,100112.84
2023-02-21T07:51:29.792Z,100117.69
2023-02-21T07:53:56.090Z,100137.41
2023-02-21T07:56:22.596Z,100141.13
2023-02-21T07:58:48.995Z,100139.19
2023-02-21T08:01:15.460Z,100134.72
2023-02-21T08:03:42.217Z,100155.03
2023-02-21T08:06:08.618Z,100177.66
2023-02-21T08:08:35.102Z,100188.38
2023-02-21T08:11:01.418Z,100185.44
2023-02-21T08:13:27.748Z,100203.72
2023-02-21T08:15:54.026Z,100201.91
2023-02-21T08:18:21.007Z,100204.19
2023-02-21T08:20:48.536Z,100205.59
2023-02-21T08:23:14.758Z,100207.38
2023-02-21T08:25:41.057Z,100217.16
2023-02-21T08:28:07.331Z,100221.66
2023-02-21T08:30:34.122Z,100233.31
2023-02-21T08:33:02.811Z,100258.03
2023-02-21T08:35:29.212Z,100277.13
2023-02-21T08:37:55.475Z,100278.38
2023-02-21T08:40:24.575Z,100307.03
2023-02-21T08:42:51.291Z,100315.72
2023-02-21T08:45:18.087Z,100309.72
2023-02-21T08:47:46.926Z,100312.41
2023-02-21T08:50:19.000Z,100295.72
2023-02-21T08:52:57.950Z,100302.50
2023-02-21T08:55:24.272Z,100319.69
2023-02-21T08:57:51.919Z,100317.44
2023-02-21T09:00:24.738Z,100303.44
2023-02-21T09:03:06.575Z,100326.69
2023-02-21T09:05:35.674Z,100351.44
2023-02-21T09:08:01.978Z,100348.25
2023-02-21T09:10:33.235Z,100348.59
2023-02-21T09:13:03.062Z,100369.97
2023-02-21T09:15:42.133Z,100334.28
2023-02-21T09:18:11.590Z,100312.47
2023-02-21T09:23:28.409Z,100295.66
2023-02-21T09:25:54.854Z,100310.63
2023-02-21T09:28:26.639Z,100309.59
2023-02-21T09:31:06.194Z,100321.69
2023-02-21T09:36:24.061Z,100340.69
2023-02-21T09:39:19.926Z,100353.19
2023-02-21T09:41:52.557Z,100398.16
2023-02-21T09:44:23.041Z,100395.25
2023-02-21T09:47:07.693Z,100447.09
2023-02-21T09:49:42.869Z,100442.16
2023-02-21T09:55:42.190Z,100476.97
2023-02-21T10:04:19.936Z,100484.53
2023-02-21T10:06:51.099Z,100509.72
2023-02-21T10:09:36.397Z,100515.38
2023-02-21T10:15:20.264Z,100499.34
2023-02-21T10:18:34.109Z,100536.84
2023-02-21T10:21:03.639Z,100532.13
2023-02-21T10:24:01.852Z,100532.88
2023-02-21T10:26:32.031Z,100549.84
2023-02-21T10:29:02.352Z,100559.91
2023-02-21T10:31:36.271Z,100542.84
2023-02-21T10:34:09.843Z,100541.03
2023-02-21T10:36:36.110Z,100558.38
2023-02-21T10:39:51.995Z,100581.28
2023-02-21T10:42:43.651Z,100593.63
2023-02-21T10:45:12.886Z,100594.44
2023-02-21T10:48:00.383Z,100553.25
2023-02-21T10:50:41.749Z,100516.28
2023-02-21T10:53:08.581Z,100538.22
2023-02-21T10:55:36.068Z,100544.06
2023-02-21T10:58:27.383Z,100577.03
2023-02-21T11:01:13.076Z,100574.53
2023-02-21T11:03:44.298Z,100497.97
2023-02-21T11:09:28.267Z,100470.88
2023-02-21T11:12:13.222Z,100468.81
2023-02-21T11:17:32.502Z,100376.59
2023-02-21T11:20:08.861Z,100352.78
2023-02-21T11:22:35.630Z,100407.03
2023-02-21T11:25:35.139Z,100365.19
2023-02-21T11:28:28.765Z,100353.50
2023-02-21T11:31:01.460Z,100376.81
2023-02-21T11:33:55.157Z,100390.09
2023-02-21T11:42:43.792Z,100395.09
2023-02-21T11:45:21.637Z,100391.56
2023-02-21T11:47:55.223Z,100376.06
2023-02-21T11:50:32.482Z,100352.00
2023-02-21T11:56:18.215Z,100321.69
2023-02-21T12:02:20.488Z,100240.84
2023-02-21T12:04:56.939Z,100220.34
2023-02-21T12:07:43.237Z,100226.28
2023-02-21T12:10:36.301Z,100185.69
2023-02-21T12:16:23.258Z,100240.50
2023-02-21T12:20:01.392Z,100197.97
2023-02-21T12:22:02.945Z,100295.88
2023-02-21T12:24:54.196Z,100240.97
2023-02-21T12:27:51.025Z,100278.22
2023-02-21T12:30:23.233Z,100256.84
2023-02-21T12:33:10.255Z,100325.09
2023-02-21T12:35:57.436Z,100283.00
2023-02-21T12:38:44.261Z,100337.16
2023-02-21T12:44:20.030Z,100352.47
2023-02-21T12:53:22.005Z,100456.00
2023-02-21T12:55:55.077Z,100449.06
2023-02-21T12:58:40.709Z,100368.31
2023-02-21T13:01:23.418Z,100341.50
2023-02-21T13:07:24.358Z,100378.88
2023-02-21T13:10:12.699Z,100451.88
2023-02-21T13:15:57.508Z,100378.91
2023-02-21T13:19:01.668Z,100310.97
2023-02-21T13:24:38.023Z,100280.72
2023-02-21T13:30:38.853Z,100278.63
2023-02-21T13:33:30.933Z,100230.50
2023-02-21T13:39:17.947Z,100276.75
2023-02-21T13:41:55.722Z,100312.88
2023-02-21T13:56:17.802Z,100471.41
2023-02-21T13:59:03.984Z,100440.56
2023-02-21T14:01:32.097Z,100423.22
2023-02-21T14:04:01.862Z,100386.22
2023-02-21T14:09:56.333Z,100448.78
2023-02-21T14:18:46.484Z,100518.03
2023-02-21T14:33:40.704Z,100605.97
2023-02-21T14:39:16.102Z,100649.41
2023-02-21T14:41:42.288Z,100645.56
2023-02-21T14:44:11.479Z,100659.47
2023-02-21T14:46:40.408Z,100671.44
2023-02-21T14:49:25.169Z,100673.13
2023-02-21T14:52:09.905Z,100692.44
2023-02-21T14:54:54.680Z,100696.19
2023-02-21T14:57:26.868Z,100708.03
2023-02-21T14:59:55.632Z,100708.84
2023-02-21T15:02:29.836Z,100744.06
2023-02-21T15:04:55.979Z,100766.88
2023-02-21T15:07:31.814Z,100760.25
2023-02-21T15:10:17.556Z,100725.44
2023-02-21T15:12:46.028Z,100718.78
2023-02-21T15:15:16.326Z,100712.00
2023-02-21T15:17:42.792Z,100703.94
2023-02-21T15:20:16.091Z,100696.78
2023-02-21T15:22:42.324Z,100681.16
2023-02-21T15:25:08.465Z,100714.16
2023-02-21T15:27:34.923Z,100736.44
2023-02-21T15:30:21.415Z,100755.78
2023-02-21T15:33:03.741Z,100747.41
2023-02-21T15:35:31.996Z,100750.38
2023-02-21T15:37:58.315Z,100748.69
2023-02-21T15:40:24.733Z,100738.63
2023-02-21T15:42:51.178Z,100710.03
2023-02-21T15:45:27.884Z,100706.06
2023-02-21T15:47:54.256Z,100694.19
2023-02-21T15:50:29.870Z,100692.81
2023-02-21T15:52:56.075Z,100699.91
2023-02-21T15:55:22.232Z,100713.81
2023-02-21T15:57:58.453Z,100713.66
2023-02-21T16:00:25.855Z,100721.09
2023-02-21T16:02:52.302Z,100723.91
2023-02-21T16:05:25.222Z,100742.97
2023-02-21T16:07:51.587Z,100753.44
2023-02-21T16:10:17.869Z,100762.91
2023-02-21T16:12:44.415Z,100760.50
2023-02-21T16:15:23.888Z,100763.13
2023-02-21T16:17:57.015Z,100753.31
2023-02-21T16:20:24.366Z,100733.38
2023-02-21T16:25:53.689Z,100662.81
2023-02-21T16:28:19.907Z,100659.19
2023-02-21T16:30:46.178Z,100688.22
2023-02-21T16:33:12.443Z,100736.28
2023-02-21T16:35:38.639Z,100746.13
2023-02-21T16:38:04.951Z,100751.31
2023-02-21T16:40:32.167Z,100771.88
2023-02-21T16:42:58.404Z,100791.06
2023-02-21T16:45:24.634Z,100801.44
2023-02-21T16:47:55.160Z,100783.06
2023-02-21T16:50:23.515Z,100758.13
2023-02-21T16:52:49.718Z,100756.03
2023-02-21T16:55:16.742Z,100757.22
2023-02-21T16:57:43.437Z,100763.03
2023-02-21T17:00:09.892Z,100765.50
2023-02-21T17:02:36.168Z,100775.88
2023-02-21T17:05:02.491Z,100791.31
2023-02-21T17:07:28.684Z,100811.13
2023-02-21T17:09:54.908Z,100795.78
2023-02-21T17:12:21.130Z,100792.22
2023-02-21T17:14:47.330Z,100793.84
2023-02-21T17:17:13.546Z,100803.22
2023-02-21T17:19:39.755Z,100794.47
2023-02-21T17:22:05.972Z,100782.00
2023-02-21T17:24:32.196Z,100796.56
2023-02-21T17:27:00.461Z,100813.53
2023-02-21T17:29:27.467Z,100805.59
2023-02-21T17:31:53.898Z,100805.81
2023-02-21T17:34:20.223Z,100815.75
2023-02-21T17:36:49.695Z,100803.41
2023-02-21T17:39:16.765Z,100775.38
2023-02-21T17:41:49.257Z,100776.97
2023-02-21T17:44:15.543Z,100770.81
2023-02-21T17:46:45.966Z,100773.00
2023-02-21T17:49:12.229Z,100767.59
2023-02-21T17:51:38.433Z,100744.06
2023-02-21T17:54:04.628Z,100717.16
2023-02-21T17:56:30.840Z,100703.00
2023-02-21T17:58:57.030Z,100692.66
2023-02-21T18:01:23.282Z,100677.53
2023-02-21T18:03:49.517Z,100676.56
2023-02-21T18:06:15.741Z,100676.63
2023-02-21T18:08:41.969Z,100673.06
2023-02-21T18:11:09.209Z,100664.31
2023-02-21T18:13:35.428Z,100653.34
2023-02-21T18:16:01.685Z,100643.53
2023-02-21T18:18:27.897Z,100634.03
2023-02-21T18:20:54.113Z,100629.34
2023-02-21T18:23:20.317Z,100618.25
2023-02-21T18:25:46.549Z,100618.06
2023-02-21T18:28:12.767Z,100611.25
2023-02-21T18:30:39.033Z,100617.78
2023-02-21T18:33:05.257Z,100619.56
2023-02-21T18:35:31.491Z,100619.13
2023-02-21T18:37:57.692Z,100615.81
2023-02-21T18:40:23.980Z,100605.09
2023-02-21T18:42:50.174Z,100602.09
2023-02-21T18:45:16.390Z,100583.63
2023-02-21T18:47:42.640Z,100568.50
2023-02-21T18:50:08.911Z,100555.97
2023-02-21T18:52:35.125Z,100550.19
2023-02-21T18:55:01.325Z,100545.22
2023-02-21T18:57:27.545Z,100555.97
2023-02-21T18:59:53.756Z,100552.63
2023-02-21T19:02:19.977Z,100549.22
2023-02-21T19:04:46.187Z,100552.03
2023-02-21T19:07:12.924Z,100538.84
2023-02-21T19:09:39.405Z,100538.50
2023-02-21T19:12:05.728Z,100547.84
2023-02-21T19:14:31.929Z,100548.38
2023-02-21T19:16:58.144Z,100549.41
2023-02-21T19:19:24.361Z,100542.47
2023-02-21T19:21:50.572Z,100537.09
2023-02-21T19:24:16.775Z,100525.75
2023-02-21T19:26:43.053Z,100525.16
2023-02-21T19:29:09.305Z,100515.06
2023-02-21T19:31:35.967Z,100506.28
2023-02-21T19:34:02.228Z,100503.91
2023-02-21T19:36:28.437Z,100491.56
2023-02-21T19:38:54.635Z,100486.44
2023-02-21T19:41:20.924Z,100490.81
2023-02-21T19:43:47.177Z,100486.63
2023-02-21T19:46:24.528Z,100486.22
2023-02-21T19:48:50.760Z,100472.50
2023-02-21T19:51:17.372Z,100445.69
2023-02-21T19:53:43.625Z,100448.47
2023-02-21T19:56:09.829Z,100444.09
2023-02-21T19:58:36.050Z,100432.97
2023-02-21T20:01:02.283Z,100428.78
2023-02-21T20:03:28.527Z,100422.63
2023-02-21T20:05:54.740Z,100422.44
2023-02-21T20:08:20.952Z,100422.25
2023-02-21T20:10:47.173Z,100417.66
2023-02-21T20:13:13.376Z,100407.09
2023-02-21T20:15:39.574Z,100398.56
2023-02-21T20:18:05.793Z,100406.72
2023-02-21T20:20:31.999Z,100405.56
2023-02-21T20:22:58.223Z,100404.00
2023-02-21T20:25:24.428Z,100392.06
2023-02-21T20:27:50.626Z,100388.66
2023-02-21T20:30:16.958Z,100378.31
2023-02-21T20:32:43.212Z,100383.09
2023-02-21T20:35:09.402Z,100372.16
2023-02-21T20:37:35.860Z,100365.38
2023-02-21T20:40:02.057Z,100360.63
